Flight Track Log - Related Links

Times and Time Zones

All times are in EDT time to prevent confusion due to time zone crossing. See the SWA407 flight status page for this flight to view local times or setup timezone preferences in your user account.

Time Position Orientation Groundspeed Altitude Reporting Facility
EDT Latitude Longitude Course Direction KTS MPH feet Rate Location/Type
Sun 04:20:25 PM 27.9667 -82.5500 196° South 164 189 600  Level Tampa TRACON
Sun 04:21:25 PM 27.9167 -82.5667 196° South 198 228 2,400 2,132 Climbing Tampa TRACON
Sun 04:22:26 PM 27.8667 -82.6000 211° Southwest 245 282 4,900 2,295 Climbing Tampa TRACON
Sun 04:24:28 PM 28.0078 -82.6175 354° North 295 339 9,400 2,044 Climbing Jacksonville Center
Sun 04:25:28 PM 28.0953 -82.6078 North 295 339 11,100 1,900 Climbing Jacksonville Center
Sun 04:26:28 PM 28.1956 -82.5981 North 326 375 13,200 2,550 Climbing Jacksonville Center
Sun 04:27:28 PM 28.3061 -82.5883 North 366 421 16,200 2,700 Climbing Jacksonville Center
Sun 04:28:28 PM 28.4144 -82.5811 North 386 444 18,600 2,250 Climbing Jacksonville Center
Sun 04:29:28 PM 28.5294 -82.5853 358° North 396 456 20,700 2,050 Climbing Jacksonville Center
Sun 04:30:28 PM 28.6506 -82.5922 357° North 410 472 22,700 2,200 Climbing Jacksonville Center
Sun 04:31:28 PM 28.7797 -82.6036 356° North 423 487 25,100 1,700 Climbing Jacksonville Center
Sun 04:32:28 PM 28.9008 -82.6197 353° North 423 487 26,100 1,200 Climbing Jacksonville Center
Sun 04:33:28 PM 29.0242 -82.6386 352° North 428 493 27,500 1,400 Climbing Jacksonville Center
Sun 04:34:28 PM 29.1536 -82.6547 354° North 446 513 28,900 1,600 Climbing Jacksonville Center
Sun 04:35:28 PM 29.2789 -82.6736 353° North 451 519 30,700 1,550 Climbing Jacksonville Center
Sun 04:36:28 PM 29.4019 -82.6900 353° North 451 519 32,000 650 Climbing Jacksonville Center
Sun 04:37:28 PM 29.5211 -82.6897 360° North 457 526 32,000 400 Level Jacksonville Center
Sun 04:38:28 PM 29.6506 -82.6800 North 457 526 32,800 1,050 Climbing Jacksonville Center
Sun 04:39:28 PM 29.7756 -82.6653 North 462 532 34,100 1,100 Climbing Jacksonville Center
Sun 04:40:28 PM 29.9072 -82.6553 North 462 532 35,000 450 Climbing Jacksonville Center
Sun 04:41:28 PM 30.0469 -82.6406 North 462 532 35,000 400 Level Jacksonville Center
Sun 04:42:28 PM 30.1619 -82.6308 North 462 532 35,800 950 Climbing Jacksonville Center
Sun 04:43:28 PM 30.2933 -82.6208 North 462 532 36,900 600 Climbing Jacksonville Center
Sun 04:44:28 PM 30.4186 -82.6083 North 462 532 37,000 50 Climbing Jacksonville Center
Sun 04:45:28 PM 30.5458 -82.5983 North 457 526 37,000  Level Jacksonville Center
Sun 04:46:28 PM 30.6753 -82.5858 North 457 526 37,000  Level Jacksonville Center
Sun 04:47:28 PM 30.7986 -82.5758 North 457 526 37,000  Level Jacksonville Center
Sun 04:48:28 PM 30.9258 -82.5656 North 457 526 37,000  Level Jacksonville Center
Sun 04:49:28 PM 31.0511 -82.5556 North 457 526 37,000  Level Jacksonville Center
Sun 04:50:28 PM 31.1786 -82.5453 North 457 526 37,000  Level Jacksonville Center
Sun 04:51:28 PM 31.3036 -82.5328 North 457 526 37,000  Level Jacksonville Center
Sun 04:52:28 PM 31.4436 -82.5128 North 463 533 37,000  Level Jacksonville Center
Sun 04:53:28 PM 31.5708 -82.5025 North 463 533 37,000  Level Jacksonville Center
Sun 04:54:28 PM 31.6961 -82.4800 North 463 533 37,000  Level Jacksonville Center
Sun 04:55:55 PM 31.8764 -82.4564 North 445 512 37,000  Level Atlanta Center
Sun 04:56:54 PM 32.0056 -82.4372 North 445 512 37,000  Level Atlanta Center
Sun 04:57:55 PM 32.1283 -82.4153 North 445 512 37,000  Level Atlanta Center
Sun 04:58:55 PM 32.2303 -82.4011 North 445 512 37,000  Level Atlanta Center
Sun 04:59:54 PM 32.3678 -82.3789 North 445 512 37,000  Level Atlanta Center
Sun 05:00:55 PM 32.4928 -82.3569 North 445 512 37,000  Level Atlanta Center
Sun 05:01:54 PM 32.6178 -82.3372 North 445 512 37,000  Level Atlanta Center
Sun 05:02:54 PM 32.7447 -82.3200 North 445 512 37,000  Level Atlanta Center
Sun 05:03:55 PM 32.8697 -82.2978 North 451 519 37,000  Level Atlanta Center
Sun 05:04:55 PM 32.9925 -82.2781 North 445 512 37,000  Level Atlanta Center
Sun 05:05:55 PM 33.1281 -82.2553 North 445 512 37,000  Level Atlanta Center
Sun 05:06:55 PM 33.2528 -82.2353 North 445 512 37,000  Level Atlanta Center
Sun 05:07:54 PM 33.3800 -82.2153 North 445 512 37,000  Level Atlanta Center
Sun 05:08:54 PM 33.5069 -82.1953 North 445 512 37,000  Level Atlanta Center
Sun 05:09:54 PM 33.6339 -82.1725 North 445 512 37,000  Level Atlanta Center
Sun 05:10:54 PM 33.7608 -82.1497 North 451 519 37,000  Level Atlanta Center
Sun 05:11:54 PM 33.8878 -82.1269 North 456 525 37,000  Level Atlanta Center
Sun 05:12:54 PM 34.0025 -82.1094 North 462 532 37,000  Level Atlanta Center
Sun 05:13:54 PM 34.1253 -82.0889 North 462 532 37,000  Level Atlanta Center
Sun 05:14:54 PM 34.2522 -82.0661 North 462 532 37,000  Level Atlanta Center
Sun 05:15:57 PM 34.3769 -82.0456 North 462 532 37,000  Level Atlanta Center
Sun 05:17:06 PM 34.5289 -82.0192 North 457 526 37,000  Level Atlanta Center
Sun 05:18:06 PM 34.6517 -81.9986 North 457 526 37,000  Level Atlanta Center
Sun 05:19:07 PM 34.7744 -81.9728 10° North 452 520 37,000  Level Atlanta Center
Sun 05:20:06 PM 34.9181 -81.9539 North 452 520 37,000  Level Atlanta Center
Sun 05:21:06 PM 35.0408 -81.9306 North 452 520 37,000  Level Atlanta Center
Sun 05:22:06 PM 35.1639 -81.9275 North 443 510 37,000  Level Atlanta Center
Sun 05:23:06 PM 35.2786 -81.9194 North 443 510 37,000  Level Atlanta Center
Sun 05:24:06 PM 35.4036 -81.9139 North 438 504 37,000  Level Atlanta Center
Sun 05:25:06 PM 35.5286 -81.9081 North 446 513 37,000  Level Atlanta Center
Sun 05:26:06 PM 35.6556 -81.8919 North 451 519 37,000  Level Atlanta Center
Sun 05:27:06 PM 35.7925 -81.8447 16° North 457 526 37,000  Level Atlanta Center
Sun 05:28:06 PM 35.9147 -81.7978 17° North 457 526 37,000  Level Atlanta Center
Sun 05:29:07 PM 36.0328 -81.7586 15° North 446 513 37,000  Level Atlanta Center
Sun 05:30:07 PM 36.1592 -81.7114 17° North 454 522 37,000  Level Atlanta Center
Sun 05:31:07 PM 36.2817 -81.6717 15° North 454 522 37,000  Level Atlanta Center
Sun 05:32:46 PM 36.4733 -81.6008 17° North 455 524 37,000  Level Indianapolis Center
Sun 05:33:48 PM 36.5997 -81.5569 16° North 467 537 37,000  Level Indianapolis Center
Sun 05:34:50 PM 36.7264 -81.5111 16° North 459 528 37,000  Level Indianapolis Center
Sun 05:35:52 PM 36.8475 -81.4683 16° North 463 533 37,000  Level Indianapolis Center
Sun 05:36:54 PM 36.9942 -81.4167 16° North 467 537 37,000  Level Indianapolis Center
Sun 05:37:56 PM 37.1142 -81.3728 16° North 460 529 37,000  Level Indianapolis Center
Sun 05:38:58 PM 37.2375 -81.3289 16° North 460 529 37,000  Level Indianapolis Center
Sun 05:40:00 PM 37.3783 -81.2783 16° North 460 529 37,000  Level Indianapolis Center
Sun 05:41:02 PM 37.4969 -81.2347 16° North 457 526 37,000  Level Indianapolis Center
Sun 05:42:04 PM 37.6150 -81.1914 16° North 454 522 37,000  Level Indianapolis Center
Sun 05:43:06 PM 37.7347 -81.1467 16° North 456 525 37,000  Level Indianapolis Center
Sun 05:44:08 PM 37.8686 -81.0981 16° North 458 527 37,000  Level Indianapolis Center
Sun 05:45:10 PM 37.9911 -81.0522 16° North 459 528 37,000  Level Indianapolis Center
Sun 05:46:12 PM 38.1125 -81.0086 16° North 457 526 37,000  Level Indianapolis Center
Sun 05:47:14 PM 38.2603 -80.9533 16° North 463 533 37,000  Level Indianapolis Center
Sun 05:48:16 PM 38.3836 -80.9067 17° North 464 534 37,000  Level Indianapolis Center
Sun 05:49:18 PM 38.5072 -80.8611 16° North 466 536 37,000  Level Indianapolis Center
Sun 05:50:20 PM 38.6306 -80.8133 17° North 466 536 37,000  Level Indianapolis Center
Sun 05:51:22 PM 38.7561 -80.7664 16° North 467 537 37,000  Level Indianapolis Center
Sun 05:52:24 PM 38.9017 -80.7106 17° North 463 533 37,000  Level Indianapolis Center
Sun 05:53:26 PM 39.0253 -80.6639 16° North 464 534 37,000  Level Indianapolis Center
Sun 05:54:28 PM 39.1481 -80.6175 16° North 462 532 37,000  Level Indianapolis Center
Sun 05:55:31 PM 39.2706 -80.5694 17° North 461 531 37,000  Level Indianapolis Center
Sun 05:56:32 PM 39.3981 -80.5214 16° North 457 526 37,000 -99 Level Cleveland Center
Sun 05:57:32 PM 39.5211 -80.4756 16° North 457 526 36,800 -600 Descending Cleveland Center
Sun 05:58:32 PM 39.6419 -80.4294 16° North 457 526 35,800 -950 Descending Cleveland Center
Sun 05:59:32 PM 39.7606 -80.3806 18° North 457 526 34,900 -950 Descending Cleveland Center
Sun 06:00:32 PM 39.8814 -80.3342 16° North 451 519 33,900 -950 Descending Cleveland Center
Sun 06:01:32 PM 40.0022 -80.2878 16° North 451 519 33,000 -450 Descending Cleveland Center
Sun 06:02:32 PM 40.1314 -80.2408 16° North 445 512 33,000 -150 Level Cleveland Center
Sun 06:03:32 PM 40.2519 -80.1914 17° North 443 510 32,700 -650 Descending Cleveland Center
Sun 06:04:32 PM 40.3728 -80.1444 16° North 437 503 31,700 -850 Descending Cleveland Center
Sun 06:05:32 PM 40.4933 -80.0944 18° North 437 503 31,000 -350 Descending Cleveland Center
Sun 06:06:32 PM 40.6183 -80.0442 17° North 443 510 31,000  Level Cleveland Center
Sun 06:07:32 PM 40.7389 -79.9939 18° North 449 517 31,000 -400 Level Cleveland Center
Sun 06:08:32 PM 40.8617 -79.9461 16° North 454 522 30,200 -900 Descending Cleveland Center
Sun 06:09:32 PM 40.9803 -79.8983 17° North 454 522 29,200 -1,000 Descending Cleveland Center
Sun 06:10:32 PM 41.1008 -79.8503 17° North 454 522 28,200 -1,050 Descending Cleveland Center
Sun 06:11:32 PM 41.2172 -79.8047 16° North 444 511 27,100 -600 Descending Cleveland Center
Sun 06:12:32 PM 41.3336 -79.7564 17° North 439 505 27,000 -50 Descending Cleveland Center
Sun 06:13:32 PM 41.4481 -79.7078 18° North 439 505 27,000  Level Cleveland Center
Sun 06:14:32 PM 41.5644 -79.6619 16° North 439 505 27,000 -500 Level Cleveland Center
Sun 06:15:32 PM 41.6808 -79.6128 18° North 439 505 26,000 -1,100 Descending Cleveland Center
Sun 06:16:32 PM 41.7950 -79.5667 17° North 434 499 24,800 -1,650 Descending Cleveland Center
Sun 06:17:32 PM 41.9050 -79.5203 17° North 429 494 22,700 -2,100 Descending Cleveland Center
Sun 06:18:32 PM 42.0131 -79.4764 17° North 416 479 20,600 -2,050 Descending Cleveland Center
Sun 06:19:32 PM 42.1147 -79.4328 18° North 398 458 18,600 -2,000 Descending Cleveland Center
Sun 06:20:32 PM 42.2122 -79.3917 17° North 378 435 16,600 -2,000 Descending Cleveland Center
Sun 06:21:32 PM 42.3119 -79.3506 17° North 372 428 14,600 -1,950 Descending Cleveland Center
Sun 06:22:32 PM 42.4053 -79.3094 18° North 360 414 12,700 -1,700 Descending Cleveland Center
Sun 06:23:32 PM 42.4944 -79.2681 19° North 360 414 11,200 -1,150 Descending Cleveland Center
Sun 06:24:32 PM 42.5772 -79.2269 20° North 344 396 10,400 -1,200 Descending Cleveland Center
Sun 06:25:32 PM 42.6622 -79.1911 17° North 324 373 8,800 -1,650 Descending Cleveland Center
Sun 06:26:32 PM 42.7406 -79.1189 34° Northeast 309 356 7,100 -900 Descending Cleveland Center
Sun 06:27:32 PM 42.8064 -79.0353 43° Northeast 314 361 7,000  Descending Cleveland Center
Sun 06:28:32 PM 42.8675 -78.9517 45° Northeast 319 367 7,100  Climbing Cleveland Center
Sun 06:29:32 PM 42.9292 -78.8761 42° Northeast 319 367 7,000 -58 Descending Cleveland Center
Sun 06:30:15 PM 42.9667 -78.8167 49° Northeast 294 338 7,000 -641 Level Buffalo TRACON
Sun 06:31:15 PM 43.0333 -78.7333 42° Northeast 271 312 5,900 -950 Descending Buffalo TRACON
Sun 06:32:15 PM 43.0833 -78.6667 44° Northeast 264 304 5,100 -650 Descending Buffalo TRACON
Sun 06:33:15 PM 43.1167 -78.6000 56° Northeast 222 255 4,600 -1,000 Descending Buffalo TRACON
Sun 06:34:15 PM 43.0667 -78.5667 154° Southeast 173 199 3,100 -1,048 Descending Buffalo TRACON
Sun 06:35:21 PM 43.0333 -78.6167 228° Southwest 163 188 2,400 -571 Descending Buffalo TRACON
Sun 06:36:21 PM 43.0000 -78.6500 216° Southwest 161 185 1,900 -500 Descending Buffalo TRACON

Login

Don't have an account? Register now (free) for customized features, flight alerts, and more!